OJAM/ADJ METAR and TAF weather

Enter ICAO airport designator
Station Type Date Time Source
OJAM METAR 2021/07/30 08:00 UTC NOAA

OJAM 300800Z 28011KT 8000 NSC 30/07 Q1009 NOSIG


Station Type Date Time Source
OJAM Decoded METAR 2021/07/30 08:00 UTC NOAA

Amman Airport, Jordan (OJAM) 31-59N 035-59E 768M
Jul 30, 2021 - 04:00 AM EDT / 2021.07.30 0800 UTC
Wind: from the W (280 degrees) at 13 MPH (11 KT):0
Visibility: 4 mile(s):0
Temperature: 86 F (30 C)
Dew Point: 44 F (7 C)
Relative Humidity: 23%
Pressure (altimeter): 29.80 in. Hg (1009 hPa)
ob: OJAM 300800Z 28011KT 8000 NSC 30/07 Q1009 NOSIG
cycle: 8

Station Type Date Time Source
OJAM TAF 2021/07/30 06:15 UTC NOAA

TAF OJAM 300413Z 3006/3112 28010KT 6000 NSC PROB30
TEMPO 3012/3015 29015KT 5000 BLDU

Example: see airport list